Time;durP1;ratioP1;P1;durP2;ratioP2;P2;SDS_P1;SDS_P2;PMS_P1;PMS_P2;Temp;Humidity;BMP_temperature;BMP_pressure;BME280_temperature;BME280_humidity;BME280_pressure;Samples;Min_cycle;Max_cycle;Signal;HPM_P1;HPM_P2
2022/10/30 00:01:57;;;;;;;33.00;10.10;;;;;;;13.41;100.00;98629.75;5042661;28;20037;-83
2022/10/30 00:04:22;;;;;;;42.40;10.57;;;;;;;13.33;100.00;98627.41;5043558;28;20488;-83
2022/10/30 00:06:48;;;;;;;50.78;11.38;;;;;;;13.35;100.00;98620.91;5053765;28;20024;-83
2022/10/30 00:09:14;;;;;;;46.35;12.35;;;;;;;13.29;100.00;98627.06;5043811;28;20040;-84
2022/10/30 00:11:40;;;;;;;60.63;11.90;;;;;;;13.26;100.00;98638.03;5020667;28;21586;-83
2022/10/30 00:14:06;;;;;;;47.00;11.52;;;;;;;13.32;100.00;98631.09;5037991;28;20034;-83
2022/10/30 00:16:32;;;;;;;41.70;11.23;;;;;;;13.25;100.00;98631.97;5024319;28;20048;-84
2022/10/30 00:18:58;;;;;;;46.15;11.95;;;;;;;13.23;100.00;98634.03;5039315;28;20061;-84
2022/10/30 00:21:23;;;;;;;45.10;13.23;;;;;;;13.27;100.00;98635.19;5028429;28;20047;-84
2022/10/30 00:23:51;;;;;;;50.95;12.30;;;;;;;13.28;100.00;98636.00;5042433;28;20429;-83
2022/10/30 00:26:19;;;;;;;44.78;11.13;;;;;;;13.31;100.00;98627.66;5036783;28;20040;-82
2022/10/30 00:28:52;;;;;;;58.53;11.75;;;;;;;13.33;100.00;98630.06;5020125;28;20021;-83
2022/10/30 00:31:18;;;;;;;;;;;;;;;13.34;100.00;98639.56;5039688;28;20034;-82
2022/10/30 00:33:48;;;;;;;45.45;11.23;;;;;;;13.32;100.00;98631.09;5045292;28;19962;-82
2022/10/30 00:36:13;;;;;;;48.85;10.27;;;;;;;13.26;100.00;98625.69;5023296;28;20123;-83
2022/10/30 00:38:39;;;;;;;46.05;10.55;;;;;;;13.30;100.00;98631.31;5055988;28;20103;-82
2022/10/30 00:41:04;;;;;;;48.13;9.75;;;;;;;13.20;100.00;98631.03;5034022;28;20025;-83
2022/10/30 00:43:37;;;;;;;44.63;11.27;;;;;;;13.31;100.00;98634.75;5040469;28;20027;-82
2022/10/30 00:46:12;;;;;;;43.37;8.83;;;;;;;13.25;100.00;98631.97;5038302;28;20137;-83
2022/10/30 00:48:38;;;;;;;34.45;9.77;;;;;;;13.21;100.00;98630.00;5040710;28;20029;-83
2022/10/30 00:51:09;;;;;;;46.92;11.05;;;;;;;13.20;100.00;98629.22;5044313;28;20035;-82
2022/10/30 00:53:35;;;;;;;39.45;10.93;;;;;;;13.18;100.00;98631.28;5040463;28;20029;-83
2022/10/30 00:56:05;;;;;;;41.95;9.95;;;;;;;13.17;100.00;98634.94;5021687;28;20084;-83
2022/10/30 00:58:37;;;;;;;47.17;10.80;;;;;;;12.99;100.00;98633.91;5054249;28;20034;-82
2022/10/30 01:01:06;;;;;;;48.78;10.82;;;;;;;13.11;100.00;98636.63;5031322;28;20087;-83
2022/10/30 01:03:34;;;;;;;56.25;11.32;;;;;;;13.13;100.00;98631.91;5035616;28;20038;-84
2022/10/30 01:06:05;;;;;;;37.17;9.82;;;;;;;13.17;100.00;98639.38;5026097;28;20037;-83
2022/10/30 01:08:32;;;;;;;42.90;10.05;;;;;;;13.18;100.00;98633.91;5018540;28;20390;-83
2022/10/30 01:11:01;;;;;;;52.75;10.43;;;;;;;13.17;100.00;98623.56;5048317;28;20068;-82
2022/10/30 01:13:27;;;;;;;51.95;10.88;;;;;;;13.31;100.00;98625.03;5038443;28;20064;-82
2022/10/30 01:16:24;;;;;;;41.08;11.98;;;;;;;13.41;100.00;98621.84;5023555;28;20038;-82
2022/10/30 01:19:19;;;;;;;39.42;11.05;;;;;;;13.50;100.00;98623.16;5017641;28;20034;-82
2022/10/30 01:22:10;;;;;;;46.45;11.15;;;;;;;13.50;100.00;98623.16;5010993;28;20087;-82
2022/10/30 01:24:48;;;;;;;46.17;10.75;;;;;;;13.40;100.00;98622.88;5051065;28;20534;-83
2022/10/30 01:27:25;;;;;;;37.65;10.13;;;;;;;13.35;100.00;98622.72;5029089;28;20491;-82
2022/10/30 01:29:59;;;;;;;57.25;11.63;;;;;;;13.16;100.00;98620.13;5042176;28;20055;-83
2022/10/30 01:32:56;;;;;;;38.22;10.20;;;;;;;13.16;100.00;98617.47;5047657;28;20041;-82
2022/10/30 01:35:43;;;;;;;41.70;8.88;;;;;;;12.97;100.00;98617.53;5043797;28;20112;-82
2022/10/30 01:38:17;;;;;;;35.65;9.93;;;;;;;12.96;100.00;98607.97;5042872;28;20040;-83
2022/10/30 01:40:44;;;;;;;42.60;9.88;;;;;;;12.95;100.00;98616.91;5028178;28;20079;-83
2022/10/30 01:43:10;;;;;;;42.25;10.35;;;;;;;12.89;100.00;98607.28;5026528;28;20112;-83
2022/10/30 01:46:07;;;;;;;45.40;9.27;;;;;;;12.84;100.00;98599.22;5053869;28;20482;-83
2022/10/30 01:49:00;;;;;;;48.53;9.88;;;;;;;12.89;100.00;98609.91;5042694;28;20075;-83
2022/10/30 01:51:53;;;;;;;53.00;10.18;;;;;;;12.89;100.00;98607.28;5028529;28;20036;-83
2022/10/30 01:54:44;;;;;;;43.77;8.90;;;;;;;12.91;100.00;98612.31;5018641;28;20033;-83
2022/10/30 01:57:20;;;;;;;51.00;10.13;;;;;;;12.82;100.00;98617.09;5049101;28;20635;-83
2022/10/30 01:59:51;;;;;;;44.47;9.70;;;;;;;12.81;100.00;98612.84;5053706;28;20022;-84
2022/10/30 02:02:18;;;;;;;41.10;9.15;;;;;;;12.76;100.00;98607.41;5042385;28;20094;-84
2022/10/30 02:04:44;;;;;;;53.13;10.13;;;;;;;12.80;100.00;98611.22;5036001;28;20021;-84
2022/10/30 02:07:10;;;;;;;47.75;9.27;;;;;;;12.80;100.00;98604.13;5036193;28;20039;-83
2022/10/30 02:09:37;;;;;;;31.50;7.70;;;;;;;12.78;100.00;98597.47;5033641;28;20038;-82
2022/10/30 02:12:04;;;;;;;28.75;8.95;;;;;;;12.70;100.00;98599.38;5030297;28;20025;-83
2022/10/30 02:14:35;;;;;;;35.88;9.20;;;;;;;12.69;100.00;98592.50;5033850;28;20044;-83
2022/10/30 02:17:04;;;;;;;53.13;9.40;;;;;;;12.66;100.00;98600.84;5057271;28;20048;-83
2022/10/30 02:19:30;;;;;;;38.58;9.90;;;;;;;12.60;100.00;98601.72;5030674;28;20060;-84
2022/10/30 02:21:55;;;;;;;42.63;8.75;;;;;;;12.61;100.00;98605.13;5046186;28;20052;-85
2022/10/30 02:24:21;;;;;;;50.72;10.10;;;;;;;12.47;100.00;98593.94;5041921;28;20552;-84
2022/10/30 02:26:47;;;;;;;36.92;9.32;;;;;;;12.57;100.00;98605.56;5055972;28;20025;-83
2022/10/30 02:29:13;;;;;;;35.55;8.00;;;;;;;12.55;100.00;98585.75;5025519;28;20040;-83
2022/10/30 02:31:38;;;;;;;34.80;8.32;;;;;;;12.53;100.00;98583.34;5030085;28;20037;-83
2022/10/30 02:34:05;;;;;;;31.83;7.97;;;;;;;12.50;100.00;98588.25;5025710;28;20520;-83
2022/10/30 02:36:31;;;;;;;39.63;7.88;;;;;;;12.48;100.00;98591.09;5044308;28;20484;-84
2022/10/30 02:38:56;;;;;;;53.70;9.48;;;;;;;12.47;100.00;98594.72;5041019;28;20033;-83
2022/10/30 02:41:23;;;;;;;41.63;8.70;;;;;;;12.48;100.00;98593.75;5042602;28;20024;-83
2022/10/30 02:43:50;;;;;;;53.90;9.73;;;;;;;12.33;100.00;98594.06;5053137;28;20035;-83
2022/10/30 02:46:16;;;;;;;31.17;8.23;;;;;;;12.39;100.00;98587.94;5055194;28;20428;-83
2022/10/30 02:48:42;;;;;;;44.22;8.38;;;;;;;12.43;100.00;98593.56;5050454;28;20028;-82
2022/10/30 02:51:08;;;;;;;37.03;8.25;;;;;;;12.41;100.00;98590.34;5048864;28;20529;-82
2022/10/30 02:53:34;;;;;;;43.63;8.50;;;;;;;12.51;100.00;98595.13;5044911;28;20039;-83
2022/10/30 02:56:07;;;;;;;46.35;8.30;;;;;;;12.51;100.00;98581.94;5037566;28;20486;-83
2022/10/30 02:58:33;;;;;;;37.58;9.05;;;;;;;12.58;100.00;98574.81;5034070;28;20037;-83
2022/10/30 03:01:25;;;;;;;44.17;9.40;;;;;;;12.65;100.00;98583.44;5026980;28;20496;-83
2022/10/30 03:03:51;;;;;;;41.88;9.68;;;;;;;12.67;100.00;98570.84;5056182;28;20041;-83
2022/10/30 03:06:17;;;;;;;41.25;8.90;;;;;;;12.73;100.00;98586.78;5044284;28;20039;-83
2022/10/30 03:08:43;;;;;;;27.83;7.28;;;;;;;12.82;100.00;98580.22;5047361;28;20048;-83
2022/10/30 03:11:14;;;;;;;40.90;9.32;;;;;;;12.81;100.00;98579.38;5045406;28;20113;-84
2022/10/30 03:13:40;;;;;;;44.38;8.52;;;;;;;12.86;100.00;98584.00;5046736;28;20029;-82
2022/10/30 03:16:09;;;;;;;35.92;7.75;;;;;;;12.85;100.00;98590.31;5042577;28;20033;-82
2022/10/30 03:18:34;;;;;;;41.22;8.52;;;;;;;12.90;100.00;98579.91;5058147;28;20029;-82
2022/10/30 03:21:03;;;;;;;32.47;7.40;;;;;;;12.96;100.00;98571.09;5043084;28;20028;-84
2022/10/30 03:23:30;;;;;;;42.92;9.60;;;;;;;12.97;100.00;98562.19;5008228;28;20033;-84
2022/10/30 03:25:57;;;;;;;40.63;8.68;;;;;;;13.12;100.00;98569.72;5045967;28;20033;-83
2022/10/30 03:28:25;;;;;;;43.80;8.45;;;;;;;13.23;100.00;98575.22;5052823;28;20385;-83
2022/10/30 03:30:57;;;;;;;46.03;10.52;;;;;;;13.31;100.00;98582.03;5042475;28;20029;-83
2022/10/30 03:33:23;;;;;;;27.92;7.88;;;;;;;13.38;100.00;98574.84;5017498;28;20063;-83
2022/10/30 03:35:48;;;;;;;45.65;9.02;;;;;;;13.26;100.00;98580.88;5050131;28;20053;-82
2022/10/30 03:38:14;;;;;;;49.95;9.43;;;;;;;13.26;100.00;98583.50;5043279;28;20094;-83
2022/10/30 03:40:40;;;;;;;45.92;9.23;;;;;;;13.34;100.00;98573.66;5046429;28;20032;-84
2022/10/30 03:43:06;;;;;;;40.63;8.38;;;;;;;13.42;100.00;98573.38;5053283;28;20466;-83
2022/10/30 03:45:32;;;;;;;43.75;9.02;;;;;;;13.37;100.00;98575.88;5035913;28;20052;-83
2022/10/30 03:48:04;;;;;;;40.10;8.40;;;;;;;13.46;100.00;98573.72;5014955;28;20382;-84
2022/10/30 03:50:30;;;;;;;37.10;8.95;;;;;;;13.42;100.00;98568.09;5041357;28;20118;-84
2022/10/30 03:52:56;;;;;;;39.97;8.15;;;;;;;13.49;100.00;98568.81;5057750;28;20028;-85
2022/10/30 03:55:23;;;;;;;44.38;9.18;;;;;;;13.46;100.00;98571.91;5043855;28;20070;-83
2022/10/30 03:57:49;;;;;;;33.88;7.88;;;;;;;13.53;100.00;98569.19;5027557;28;20040;-82
2022/10/30 04:00:16;;;;;;;39.75;8.93;;;;;;;13.43;100.00;98570.53;5040915;28;20025;-85
2022/10/30 04:02:49;;;;;;;23.60;7.72;;;;;;;13.54;100.00;98568.16;5042272;28;20036;-83
2022/10/30 04:05:20;;;;;;;40.28;7.85;;;;;;;13.55;100.00;98573.19;5039487;28;20036;-83
2022/10/30 04:07:46;;;;;;;35.58;8.23;;;;;;;13.54;100.00;98565.53;5052223;28;20028;-84
2022/10/30 04:10:13;;;;;;;40.10;9.00;;;;;;;13.52;100.00;98568.38;5053277;28;20363;-83
2022/10/30 04:12:39;;;;;;;36.60;9.43;;;;;;;13.58;100.00;98564.03;5022398;28;20044;-82
2022/10/30 04:15:06;;;;;;;40.78;8.50;;;;;;;13.66;100.00;98566.38;5038766;28;20487;-81
2022/10/30 04:17:32;;;;;;;39.03;9.02;;;;;;;13.55;100.00;98562.63;5043211;28;20038;-83
2022/10/30 04:19:58;;;;;;;38.40;8.75;;;;;;;13.46;100.00;98558.72;5039516;28;20029;-83
2022/10/30 04:22:24;;;;;;;33.50;8.88;;;;;;;13.61;100.00;98560.16;5041932;28;20030;-84
2022/10/30 04:24:50;;;;;;;36.38;9.88;;;;;;;13.67;100.00;98556.59;5038490;28;20035;-83
2022/10/30 04:27:16;;;;;;;42.60;10.48;;;;;;;13.52;100.00;98549.13;5023113;28;20020;-82
2022/10/30 04:29:42;;;;;;;44.90;9.23;;;;;;;13.46;100.00;98550.81;5038918;28;20492;-83
2022/10/30 04:32:09;;;;;;;36.83;9.80;;;;;;;13.52;100.00;98547.28;5038093;28;20025;-83
2022/10/30 04:34:35;;;;;;;33.42;8.50;;;;;;;13.56;100.00;98548.47;5045966;28;20490;-83
2022/10/30 04:37:01;;;;;;;30.40;9.55;;;;;;;13.61;100.00;98558.31;5045331;28;20032;-83
2022/10/30 04:39:26;;;;;;;43.08;10.75;;;;;;;13.57;100.00;98551.88;5045703;28;20052;-83
2022/10/30 04:41:52;;;;;;;49.97;9.55;;;;;;;13.57;100.00;98544.78;5045650;28;20056;-82
2022/10/30 04:44:18;;;;;;;34.38;8.80;;;;;;;13.38;100.00;98540.59;5045567;28;20107;-84
2022/10/30 04:46:43;;;;;;;27.33;8.10;;;;;;;13.42;100.00;98549.66;5040077;28;20045;-83
2022/10/30 04:49:09;;;;;;;40.83;8.55;;;;;;;13.39;100.00;98547.47;5048836;28;20024;-83
2022/10/30 04:51:34;;;;;;;37.10;7.22;;;;;;;13.45;100.00;98543.94;5047728;28;20044;-83
2022/10/30 04:54:00;;;;;;;32.05;8.27;;;;;;;13.41;100.00;98532.22;5050017;28;20034;-84
2022/10/30 04:56:26;;;;;;;39.13;7.78;;;;;;;13.46;100.00;98527.09;5030885;28;20498;-83
2022/10/30 04:58:52;;;;;;;38.35;7.57;;;;;;;13.55;100.00;98528.38;5056887;28;20029;-83
2022/10/30 05:01:18;;;;;;;32.38;7.50;;;;;;;13.40;100.00;98514.81;5046058;28;20390;-83
2022/10/30 05:03:44;;;;;;;36.13;8.05;;;;;;;13.57;100.00;98504.41;5026753;28;20025;-82
2022/10/30 05:06:20;;;;;;;32.65;7.75;;;;;;;13.58;100.00;98521.84;5057290;28;20077;-81
2022/10/30 05:08:46;;;;;;;28.63;7.43;;;;;;;13.55;100.00;98531.00;5028414;28;20124;-83
2022/10/30 05:11:12;;;;;;;37.70;8.32;;;;;;;13.39;100.00;98531.66;5056728;28;20424;-81
2022/10/30 05:13:37;;;;;;;36.47;7.65;;;;;;;13.29;100.00;98543.53;5041474;28;20052;-82
2022/10/30 05:16:03;;;;;;;34.67;7.53;;;;;;;13.17;100.00;98536.59;5056731;28;20028;-82
2022/10/30 05:18:28;;;;;;;32.88;7.22;;;;;;;13.12;100.00;98527.53;5070215;28;20116;-83
2022/10/30 05:20:54;;;;;;;31.58;7.38;;;;;;;13.14;100.00;98527.31;5032158;28;20038;-82
2022/10/30 05:23:19;;;;;;;36.50;8.48;;;;;;;13.11;100.00;98522.50;5051443;28;20033;-82
2022/10/30 05:25:45;;;;;;;42.20;8.05;;;;;;;13.02;100.00;98510.66;5036082;28;20391;-83
2022/10/30 05:28:10;;;;;;;31.92;7.63;;;;;;;12.92;100.00;98501.44;5048211;28;20049;-82
2022/10/30 05:30:36;;;;;;;33.30;8.65;;;;;;;12.95;100.00;98503.63;5042380;28;20437;-83
2022/10/30 05:33:06;;;;;;;41.45;8.57;;;;;;;12.91;100.00;98504.31;5054624;28;20475;-82
2022/10/30 05:35:33;;;;;;;38.30;7.55;;;;;;;12.94;100.00;98520.47;5048007;28;20033;-82
2022/10/30 05:38:00;;;;;;;29.73;7.32;;;;;;;12.94;100.00;98520.47;5046242;28;20031;-83
2022/10/30 05:40:26;;;;;;;24.38;7.18;;;;;;;12.91;100.00;98520.91;5032904;28;20455;-83
2022/10/30 05:42:51;;;;;;;27.77;7.22;;;;;;;12.85;100.00;98532.34;5043773;28;20059;-83
2022/10/30 05:45:17;;;;;;;34.83;7.60;;;;;;;12.88;100.00;98525.84;5047754;28;20056;-83
2022/10/30 05:47:43;;;;;;;37.50;7.60;;;;;;;12.89;100.00;98528.25;5026200;28;20051;-83
2022/10/30 05:50:13;;;;;;;25.58;7.57;;;;;;;12.91;100.00;98515.66;5054846;28;20025;-82
2022/10/30 05:52:39;;;;;;;38.00;7.22;;;;;;;12.82;100.00;98514.38;5050282;28;20475;-83
2022/10/30 05:55:07;;;;;;;37.53;8.23;;;;;;;12.85;100.00;98527.88;5021851;28;20072;-83
2022/10/30 05:57:32;;;;;;;30.08;7.15;;;;;;;13.04;100.00;98524.41;5054119;28;20084;-83
2022/10/30 05:59:59;;;;;;;24.20;6.65;;;;;;;13.07;100.00;98535.31;5029641;28;20541;-82
2022/10/30 06:02:24;;;;;;;37.15;8.40;;;;;;;12.81;100.00;98531.19;5051737;28;20029;-82
2022/10/30 06:04:50;;;;;;;47.90;7.68;;;;;;;12.97;100.00;98535.84;5044722;28;20032;-82
2022/10/30 06:07:15;;;;;;;27.77;7.00;;;;;;;13.07;100.00;98539.78;5047050;28;20064;-82
2022/10/30 06:09:41;;;;;;;34.92;7.30;;;;;;;13.11;100.00;98540.94;5045745;28;20466;-82
2022/10/30 06:12:07;;;;;;;35.10;7.32;;;;;;;13.14;100.00;98537.84;5053233;28;20040;-83
2022/10/30 06:14:32;;;;;;;27.48;6.90;;;;;;;13.05;100.00;98536.56;5048329;28;20448;-83
2022/10/30 06:16:57;;;;;;;36.65;8.13;;;;;;;13.14;100.00;98536.03;5048160;28;20033;-83
2022/10/30 06:19:23;;;;;;;22.08;6.50;;;;;;;13.36;100.00;98547.88;5053478;28;20028;-83
2022/10/30 06:21:48;;;;;;;35.13;7.28;;;;;;;13.41;100.00;98542.75;5049273;28;20501;-82
2022/10/30 06:24:15;;;;;;;24.33;6.50;;;;;;;13.45;100.00;98551.84;5040573;28;20036;-83
2022/10/30 06:26:41;;;;;;;34.75;7.88;;;;;;;13.35;100.00;98556.81;5048884;28;20033;-83
2022/10/30 06:29:07;;;;;;;25.15;6.47;;;;;;;13.53;100.00;98548.09;5027747;28;20116;-83
2022/10/30 06:31:32;;;;;;;27.55;6.53;;;;;;;13.49;100.00;98537.19;5044072;28;20033;-82
2022/10/30 06:33:58;;;;;;;35.22;7.95;;;;;;;13.43;100.00;98548.66;5041303;28;20033;-83
2022/10/30 06:36:24;;;;;;;25.63;7.90;;;;;;;13.52;100.00;98547.28;5051446;28;20047;-83
2022/10/30 06:38:49;;;;;;;29.80;7.72;;;;;;;13.45;100.00;98549.22;5048452;28;20037;-82
2022/10/30 06:41:15;;;;;;;39.35;8.50;;;;;;;13.43;100.00;98561.81;5047237;28;20035;-82
2022/10/30 06:43:40;;;;;;;30.13;7.28;;;;;;;13.39;100.00;98555.38;5045508;28;20039;-82
2022/10/30 06:46:06;;;;;;;35.13;8.35;;;;;;;13.46;100.00;98563.19;5043047;28;20059;-82
2022/10/30 06:48:31;;;;;;;21.95;6.47;;;;;;;13.50;100.00;98554.59;5039903;28;20032;-82
2022/10/30 06:50:59;;;;;;;31.55;7.43;;;;;;;13.51;100.00;98555.44;5044423;28;20028;-82
2022/10/30 06:53:25;;;;;;;26.77;8.27;;;;;;;13.43;100.00;98572.38;5039333;28;20044;-81
2022/10/30 06:55:56;;;;;;;26.38;6.97;;;;;;;13.52;100.00;98552.56;5042004;28;20030;-81
2022/10/30 06:58:22;;;;;;;37.75;8.45;;;;;;;13.63;100.00;98566.78;5039537;28;20029;-83
2022/10/30 07:00:48;;;;;;;27.40;7.68;;;;;;;13.50;100.00;98561.72;5052086;28;20039;-82
2022/10/30 07:03:14;;;;;;;26.92;7.25;;;;;;;13.56;100.00;98563.47;5042606;28;20037;-83
2022/10/30 07:05:39;;;;;;;27.15;8.23;;;;;;;13.59;100.00;98584.09;5041228;28;20376;-82
2022/10/30 07:08:05;;;;;;;34.65;7.15;;;;;;;13.56;100.00;98585.38;5023715;28;20470;-82
2022/10/30 07:10:30;;;;;;;41.85;8.77;;;;;;;13.42;100.00;98579.44;5040500;28;20029;-90
2022/10/30 07:12:57;;;;;;;31.70;7.60;;;;;;;13.62;100.00;98574.94;5038731;28;20025;-85
2022/10/30 07:15:23;;;;;;;28.73;8.35;;;;;;;13.63;100.00;98572.06;5046349;28;20086;-86
2022/10/30 07:17:56;;;;;;;30.08;9.13;;;;;;;13.68;100.00;98574.03;5045043;28;20530;-85
2022/10/30 07:20:23;;;;;;;28.60;7.75;;;;;;;13.60;100.00;98577.78;5020529;28;20035;-87
2022/10/30 07:22:49;;;;;;;33.08;8.20;;;;;;;13.61;100.00;98575.97;5028381;28;20422;-86
2022/10/30 07:25:14;;;;;;;36.20;9.15;;;;;;;13.61;100.00;98563.56;5024766;28;20035;-87
2022/10/30 07:27:45;;;;;;;30.88;7.78;;;;;;;13.76;100.00;98567.63;5026900;28;20026;-86
2022/10/30 07:30:23;;;;;;;34.72;8.18;;;;;;;13.82;100.00;98572.81;5043660;28;20398;-86
2022/10/30 07:33:00;;;;;;;34.58;8.13;;;;;;;13.83;100.00;98558.59;5040230;28;20032;-86
2022/10/30 07:35:26;;;;;;;20.58;7.22;;;;;;;13.95;100.00;98557.78;5023740;28;20493;-86
2022/10/30 07:37:55;;;;;;;18.17;7.10;;;;;;;14.00;100.00;98563.19;5021464;28;20037;-87
2022/10/30 07:40:21;;;;;;;37.25;7.88;;;;;;;13.95;100.00;98550.69;5050019;28;20544;-86
2022/10/30 07:42:47;;;;;;;28.30;7.22;;;;;;;13.87;100.00;98537.84;5040129;28;20087;-88
2022/10/30 07:45:12;;;;;;;30.15;7.70;;;;;;;13.95;100.00;98550.69;5051277;28;20523;-87
2022/10/30 07:47:42;;;;;;;31.55;8.40;;;;;;;13.95;100.00;98549.84;5041447;28;20498;-86
2022/10/30 07:50:09;;;;;;;31.15;7.22;;;;;;;13.87;100.00;98553.66;5051530;28;20032;-87
2022/10/30 07:52:36;;;;;;;25.65;7.50;;;;;;;13.91;100.00;98540.78;5030931;28;20498;-87
2022/10/30 07:55:02;;;;;;;26.75;7.00;;;;;;;13.91;100.00;98546.06;5051017;28;20056;-87
2022/10/30 07:57:55;;;;;;;28.10;6.93;;;;;;;13.94;100.00;98562.25;5044115;28;20037;-85
2022/10/30 08:00:20;;;;;;;33.70;6.70;;;;;;;13.88;100.00;98554.44;5040123;28;20049;-85
2022/10/30 08:02:50;;;;;;;30.40;8.48;;;;;;;13.99;100.00;98551.03;5047882;28;20390;-84
2022/10/30 08:05:17;;;;;;;28.67;7.50;;;;;;;13.87;100.00;98552.84;5034176;28;20060;-84
2022/10/30 08:07:45;;;;;;;35.00;8.05;;;;;;;14.10;100.00;98552.84;5025314;28;20163;-85
2022/10/30 08:10:14;;;;;;;32.70;7.93;;;;;;;14.08;100.00;98546.22;5026591;28;20558;-83
2022/10/30 08:12:42;;;;;;;28.48;7.95;;;;;;;14.16;100.00;98556.41;5023834;28;20441;-85
2022/10/30 08:15:22;;;;;;;28.27;7.72;;;;;;;14.07;100.00;98574.44;5020453;28;20473;-84
2022/10/30 08:17:49;;;;;;;24.27;6.20;;;;;;;14.01;100.00;98559.53;5049164;28;20125;-84
2022/10/30 08:20:18;;;;;;;22.02;6.88;;;;;;;14.16;100.00;98576.75;5037316;28;20105;-84
2022/10/30 08:22:49;;;;;;;17.38;5.30;;;;;;;14.32;100.00;98583.94;5058210;28;20024;-83
2022/10/30 08:25:16;;;;;;;25.58;6.70;;;;;;;14.26;100.00;98585.69;5021761;28;20038;-84
2022/10/30 08:28:10;;;;;;;23.92;5.90;;;;;;;14.30;100.00;98583.38;5042418;28;20032;-85
2022/10/30 08:30:37;;;;;;;27.92;5.85;;;;;;;14.23;100.00;98577.41;5029453;28;20044;-86
2022/10/30 08:33:06;;;;;;;31.35;7.70;;;;;;;14.11;100.00;98578.22;5047512;28;20033;-84
2022/10/30 08:35:32;;;;;;;24.25;6.63;;;;;;;14.23;100.00;98566.88;5048138;28;20116;-85
2022/10/30 08:38:01;;;;;;;22.27;5.68;;;;;;;14.26;100.00;98574.31;5052892;28;20050;-87
2022/10/30 08:44:36;;;;;;;35.83;7.88;;;;;;;14.35;100.00;98572.13;5053892;28;20041;-86
2022/10/30 08:47:02;;;;;;;26.02;7.80;;;;;;;14.34;100.00;98558.13;5029634;28;20094;-86
2022/10/30 08:49:28;;;;;;;33.05;10.15;;;;;;;14.03;100.00;98560.09;5046969;28;20032;-86
2022/10/30 08:51:53;;;;;;;37.05;10.23;;;;;;;14.06;100.00;98557.00;5050274;28;20029;-87
2022/10/30 08:54:21;;;;;;;30.42;7.57;;;;;;;14.22;100.00;98550.22;5035235;28;20035;-87
2022/10/30 08:56:47;;;;;;;30.83;8.02;;;;;;;14.00;100.00;98563.19;5052621;28;20032;-86
2022/10/30 08:59:13;;;;;;;24.52;7.45;;;;;;;14.25;100.00;98564.78;5033141;28;20461;-86
2022/10/30 09:01:39;;;;;;;27.33;7.25;;;;;;;14.41;100.00;98558.81;5044874;28;20033;-86
2022/10/30 09:04:05;;;;;;;38.35;7.07;;;;;;;14.38;100.00;98551.38;5049734;28;20024;-85
2022/10/30 09:06:31;;;;;;;23.52;7.10;;;;;;;14.49;100.00;98543.66;5049047;28;20037;-85
2022/10/30 09:08:57;;;;;;;33.05;6.72;;;;;;;14.43;100.00;98548.00;5055686;28;20458;-84
2022/10/30 09:11:23;;;;;;;22.02;5.68;;;;;;;14.51;100.00;98560.06;5059058;28;20051;-86
2022/10/30 09:13:48;;;;;;;30.63;7.38;;;;;;;14.48;100.00;98552.59;5045995;28;20036;-84
2022/10/30 09:16:14;;;;;;;26.45;6.25;;;;;;;14.45;100.00;98545.97;5041959;28;20037;-83
2022/10/30 09:18:41;;;;;;;25.10;6.53;;;;;;;14.54;100.00;98551.66;5041836;28;20041;-84
2022/10/30 09:21:06;;;;;;;16.98;5.65;;;;;;;14.69;100.00;98554.63;5058136;28;20035;-84
2022/10/30 09:23:32;;;;;;;26.48;6.65;;;;;;;14.78;100.00;98555.09;5041470;28;20029;-85
2022/10/30 09:25:57;;;;;;;25.67;6.75;;;;;;;14.82;100.00;98539.59;5029499;28;20040;-85
2022/10/30 09:28:23;;;;;;;22.98;5.50;;;;;;;14.92;100.00;98550.34;5067453;28;20032;-85
2022/10/30 09:30:51;;;;;;;28.65;6.63;;;;;;;14.83;100.00;98562.31;5051861;28;20032;-86
2022/10/30 09:33:18;;;;;;;26.08;5.72;;;;;;;14.85;100.00;98562.91;5037480;28;20029;-88
2022/10/30 09:35:43;;;;;;;29.25;5.47;;;;;;;15.03;100.00;98561.91;5040339;28;20367;-85
2022/10/30 09:38:09;;;;;;;25.40;5.90;;;;;;;15.01;100.00;98577.19;5054389;28;20040;-84
2022/10/30 09:44:50;;;;;;;22.30;5.68;;;;;;;14.97;100.00;98553.09;5050930;28;20415;-85
2022/10/30 09:47:52;;;;;;;32.08;5.40;;;;;;;15.11;100.00;98544.88;5023110;28;20045;-88
2022/10/30 09:50:38;;;;;;;25.05;5.68;;;;;;;15.19;100.00;98547.16;5028104;28;20026;-86
2022/10/30 09:53:32;;;;;;;20.52;6.10;;;;;;;15.26;100.00;98534.56;5010448;28;20518;-88
2022/10/30 09:56:01;;;;;;;27.20;5.75;;;;;;;15.16;100.00;98542.34;5021172;28;20419;-86
2022/10/30 09:58:39;;;;;;;15.32;4.35;;;;;;;15.47;100.00;98548.16;5021485;28;20091;-86
2022/10/30 10:01:24;;;;;;;19.00;5.18;;;;;;;15.58;100.00;98557.06;5005640;28;20408;-86
2022/10/30 10:04:16;;;;;;;28.65;5.85;;;;;;;15.57;100.00;98543.03;5005964;28;20093;-86
2022/10/30 10:06:46;;;;;;;21.40;4.63;;;;;;;15.62;100.00;98533.59;5008451;28;20029;-86
2022/10/30 10:09:21;;;;;;;20.65;4.88;;;;;;;15.38;100.00;98536.38;5006308;28;20030;-86
2022/10/30 10:11:57;;;;;;;24.85;5.97;;;;;;;15.80;100.00;98551.88;5007968;28;20057;-86
2022/10/30 10:14:30;;;;;;;24.00;4.43;;;;;;;15.93;100.00;98519.00;5006236;28;20030;-85
2022/10/30 10:17:01;;;;;;;25.42;4.50;;;;;;;15.93;100.00;98532.25;5005698;28;20045;-85
2022/10/30 10:20:04;;;;;;;18.40;4.85;;;;;;;16.08;100.00;98542.25;5007847;28;20096;-86
2022/10/30 10:22:41;;;;;;;19.20;4.43;;;;;;;16.18;100.00;98540.81;4972429;28;20035;-89
2022/10/30 10:25:12;;;;;;;21.48;4.75;;;;;;;16.12;100.00;98530.16;5018758;28;20438;-84
2022/10/30 10:27:58;;;;;;;19.00;4.72;;;;;;;15.90;100.00;98532.72;5024690;28;20030;-85
2022/10/30 10:30:28;;;;;;;28.25;5.68;;;;;;;16.03;100.00;98539.53;5046990;28;20057;-86
2022/10/30 10:33:03;;;;;;;20.35;4.68;;;;;;;15.98;100.00;98536.81;5025125;28;20084;-86
2022/10/30 10:35:55;;;;;;;28.40;7.65;;;;;;;15.82;100.00;98544.50;5024579;28;20033;-85
2022/10/30 10:38:36;;;;;;;24.98;5.90;;;;;;;15.89;100.00;98543.53;5014174;28;20103;-85
2022/10/30 10:41:22;;;;;;;21.48;4.18;;;;;;;15.88;100.00;98539.25;5021974;28;20026;-86
2022/10/30 10:44:10;;;;;;;25.05;5.35;;;;;;;16.15;100.00;98543.94;5026646;28;20037;-86
2022/10/30 10:46:44;;;;;;;18.40;4.05;;;;;;;16.12;100.00;98551.31;5013416;28;20455;-85
2022/10/30 10:49:16;;;;;;;22.17;5.15;;;;;;;16.21;100.00;98557.00;5004798;28;20026;-86
2022/10/30 10:51:48;;;;;;;19.35;3.95;;;;;;;16.30;100.00;98561.88;5002764;28;20109;-86
2022/10/30 10:54:20;;;;;;;22.65;4.10;;;;;;;16.25;100.00;98547.53;5006528;28;20072;-85
2022/10/30 10:56:48;;;;;;;20.38;5.25;;;;;;;16.32;100.00;98539.41;5002361;28;20029;-86
2022/10/30 10:59:40;;;;;;;19.63;5.85;;;;;;;16.23;100.00;98548.81;5002781;28;20030;-86
2022/10/30 11:02:07;;;;;;;16.13;3.80;;;;;;;16.30;100.00;98546.78;5001699;28;20057;-86
2022/10/30 11:04:38;;;;;;;19.40;4.32;;;;;;;16.24;100.00;98550.41;5003897;28;20029;-85
2022/10/30 11:07:40;;;;;;;18.50;4.47;;;;;;;16.29;100.00;98547.81;5004077;28;20369;-86
2022/10/30 11:10:13;;;;;;;19.42;4.15;;;;;;;16.26;100.00;98533.25;4998258;28;20184;-85
2022/10/30 11:12:39;;;;;;;24.60;4.97;;;;;;;16.30;100.00;98536.19;5003494;28;20029;-86
2022/10/30 11:15:36;;;;;;;16.27;4.18;;;;;;;16.33;100.00;98527.78;5001353;28;20032;-87
2022/10/30 11:18:07;;;;;;;20.15;5.05;;;;;;;16.52;100.00;98540.72;4982641;28;20042;-87
2022/10/30 11:21:00;;;;;;;25.92;5.03;;;;;;;16.57;100.00;98548.72;5001132;28;20025;-86
2022/10/30 11:23:38;;;;;;;17.20;4.35;;;;;;;16.74;100.00;98553.19;4995744;28;20076;-86
2022/10/30 11:26:24;;;;;;;21.52;5.72;;;;;;;16.70;100.00;98535.13;5001834;28;20037;-87
2022/10/30 11:28:53;;;;;;;12.45;3.90;;;;;;;16.42;100.00;98525.50;5003188;28;20026;-86
2022/10/30 11:31:20;;;;;;;15.15;4.53;;;;;;;16.40;100.00;98533.69;5001632;28;20570;-87
2022/10/30 11:33:47;;;;;;;13.95;4.50;;;;;;;16.70;100.00;98524.53;4985512;28;20034;-86
2022/10/30 11:36:20;;;;;;;18.95;4.10;;;;;;;16.73;100.00;98525.06;5006203;28;20531;-87
2022/10/30 11:38:45;;;;;;;19.65;4.55;;;;;;;16.43;100.00;98516.50;5001875;28;20030;-85